createdAt,value
2019-02-15T00:01:30.618Z,13.78
2019-02-15T00:03:59.833Z,11.68
2019-02-15T00:06:28.269Z,14.85
2019-02-15T00:08:56.722Z,15.55
2019-02-15T00:11:25.170Z,15.25
2019-02-15T00:14:02.526Z,14.43
2019-02-15T00:16:30.984Z,13.22
2019-02-15T00:19:08.469Z,15.15
2019-02-15T00:21:43.026Z,12.65
2019-02-15T00:24:11.503Z,12.88
2019-02-15T00:26:39.950Z,13.40
2019-02-15T00:29:08.443Z,11.88
2019-02-15T00:31:36.881Z,12.23
2019-02-15T00:34:05.328Z,16.10
2019-02-15T00:36:33.777Z,11.97
2019-02-15T00:39:02.779Z,12.80
2019-02-15T00:41:31.466Z,9.40
2019-02-15T00:43:59.940Z,12.78
2019-02-15T00:46:37.727Z,13.30
2019-02-15T00:49:08.015Z,14.20
2019-02-15T00:52:07.405Z,12.28
2019-02-15T00:54:57.757Z,14.93
2019-02-15T00:57:40.275Z,13.22
2019-02-15T01:00:28.005Z,15.13
2019-02-15T01:03:04.835Z,13.00
2019-02-15T01:05:44.908Z,13.90
2019-02-15T01:08:21.107Z,14.13
2019-02-15T01:11:07.151Z,13.78
2019-02-15T01:13:35.588Z,12.45
2019-02-15T01:16:04.064Z,10.98
2019-02-15T01:18:33.031Z,13.18
2019-02-15T01:21:01.494Z,12.63
2019-02-15T01:23:30.178Z,12.05
2019-02-15T01:26:12.082Z,10.68
2019-02-15T01:28:48.000Z,12.00
2019-02-15T01:31:34.917Z,11.75
2019-02-15T01:34:21.452Z,14.18
2019-02-15T01:36:57.860Z,15.05
2019-02-15T01:39:39.899Z,11.28
2019-02-15T01:42:18.099Z,14.65
2019-02-15T01:44:54.538Z,11.93
2019-02-15T01:47:26.396Z,9.83
2019-02-15T01:49:54.932Z,10.70
2019-02-15T01:52:23.359Z,11.70
2019-02-15T01:54:52.118Z,11.65
2019-02-15T01:57:20.837Z,14.80
2019-02-15T01:59:49.503Z,12.90
2019-02-15T02:02:18.008Z,11.38
2019-02-15T02:04:46.790Z,13.58
2019-02-15T02:07:15.193Z,11.97
2019-02-15T02:09:43.639Z,13.18
2019-02-15T02:12:12.273Z,11.30
2019-02-15T02:14:40.975Z,11.57
2019-02-15T02:17:09.698Z,13.65
2019-02-15T02:19:38.157Z,12.20
2019-02-15T02:22:06.875Z,10.90
2019-02-15T02:24:35.323Z,11.30
2019-02-15T02:27:03.798Z,11.50
2019-02-15T02:29:32.233Z,11.33
2019-02-15T02:32:00.707Z,14.10
2019-02-15T02:34:29.141Z,14.00
2019-02-15T02:36:57.593Z,10.55
2019-02-15T02:39:26.407Z,10.63
2019-02-15T02:41:54.860Z,12.82
2019-02-15T02:44:23.330Z,8.68
2019-02-15T02:46:51.784Z,14.68
2019-02-15T02:49:20.249Z,11.80
2019-02-15T02:51:48.758Z,10.70
2019-02-15T02:54:17.293Z,12.13
2019-02-15T02:56:45.938Z,12.47
2019-02-15T02:59:14.371Z,9.13
2019-02-15T03:01:42.835Z,11.20
2019-02-15T03:04:11.277Z,10.58
2019-02-15T03:06:39.735Z,12.28
2019-02-15T03:09:09.921Z,11.97
2019-02-15T03:11:38.615Z,10.18
2019-02-15T03:14:11.445Z,11.65
2019-02-15T03:16:37.475Z,10.43
2019-02-15T03:19:06.232Z,10.20
2019-02-15T03:21:34.699Z,13.35
2019-02-15T03:24:03.149Z,9.68
2019-02-15T03:26:31.584Z,12.30
2019-02-15T03:29:00.301Z,10.95
2019-02-15T03:31:28.730Z,12.15
2019-02-15T03:33:57.205Z,10.18
2019-02-15T03:36:40.830Z,10.78
2019-02-15T03:39:21.260Z,10.50
2019-02-15T03:41:49.702Z,9.60
2019-02-15T03:44:22.234Z,13.15
2019-02-15T03:46:48.583Z,13.00
2019-02-15T03:49:17.271Z,10.45
2019-02-15T03:51:45.726Z,10.85
2019-02-15T03:54:14.427Z,9.73
2019-02-15T03:56:43.352Z,12.05
2019-02-15T03:59:11.792Z,11.45
2019-02-15T04:01:40.488Z,11.55
2019-02-15T04:04:09.168Z,10.30
2019-02-15T04:06:37.623Z,11.83
2019-02-15T04:09:06.683Z,13.48
2019-02-15T04:11:35.401Z,10.43
2019-02-15T04:14:03.881Z,11.20
2019-02-15T04:16:32.620Z,12.13
2019-02-15T04:19:01.306Z,11.68
2019-02-15T04:21:32.423Z,14.03
2019-02-15T04:24:01.132Z,12.93
2019-02-15T04:26:29.563Z,10.72
2019-02-15T04:28:58.248Z,10.13
2019-02-15T04:31:26.938Z,12.90
2019-02-15T04:33:55.379Z,8.58
2019-02-15T04:36:24.071Z,11.57
2019-02-15T04:38:52.863Z,10.23
2019-02-15T04:41:21.551Z,12.45
2019-02-15T04:43:50.025Z,11.35
2019-02-15T04:46:18.469Z,11.40
2019-02-15T04:48:46.936Z,10.58
2019-02-15T04:51:16.167Z,8.83
2019-02-15T04:53:44.835Z,11.57
2019-02-15T04:56:13.280Z,10.28
2019-02-15T04:58:41.734Z,9.13
2019-02-15T05:01:10.163Z,9.85
2019-02-15T05:03:38.617Z,10.40
2019-02-15T05:06:07.048Z,9.45
2019-02-15T05:08:35.746Z,10.93
2019-02-15T05:11:04.198Z,8.55
2019-02-15T05:13:32.662Z,9.00
2019-02-15T05:16:01.104Z,9.50
2019-02-15T05:18:29.577Z,9.65
2019-02-15T05:20:58.524Z,9.05
2019-02-15T05:23:27.214Z,10.15
2019-02-15T05:25:55.899Z,10.32
2019-02-15T05:28:25.069Z,8.90
2019-02-15T05:30:53.764Z,10.80
2019-02-15T05:33:22.244Z,7.83
2019-02-15T05:35:51.408Z,10.20
2019-02-15T05:38:19.869Z,10.65
2019-02-15T05:40:48.817Z,13.55
2019-02-15T05:43:17.500Z,8.13
2019-02-15T05:45:45.956Z,8.88
2019-02-15T05:48:18.211Z,10.25
2019-02-15T05:50:46.672Z,9.60
2019-02-15T05:53:15.140Z,9.73
2019-02-15T05:55:44.070Z,9.30
2019-02-15T05:58:12.767Z,7.25
2019-02-15T06:00:41.223Z,8.58
2019-02-15T06:03:09.679Z,8.90
2019-02-15T06:05:38.396Z,14.07
2019-02-15T06:08:06.846Z,8.63
2019-02-15T06:10:35.557Z,8.13
2019-02-15T06:13:04.479Z,10.15
2019-02-15T06:15:33.671Z,11.35
2019-02-15T06:18:02.127Z,10.82
2019-02-15T06:20:30.581Z,8.53
2019-02-15T06:22:59.046Z,10.18
2019-02-15T06:25:27.597Z,6.85
2019-02-15T06:27:56.268Z,9.28
2019-02-15T06:30:24.955Z,8.83
2019-02-15T06:32:53.683Z,11.97
2019-02-15T06:35:22.142Z,8.68
2019-02-15T06:37:51.308Z,8.33
2019-02-15T06:40:19.772Z,11.40
2019-02-15T06:42:48.226Z,9.70
2019-02-15T06:45:24.247Z,10.03
2019-02-15T06:47:47.612Z,6.55
2019-02-15T06:50:16.096Z,11.18
2019-02-15T06:52:44.791Z,7.85
2019-02-15T06:55:13.356Z,7.15
2019-02-15T06:57:42.061Z,9.43
2019-02-15T07:00:32.875Z,8.50
2019-02-15T07:03:10.580Z,10.48
2019-02-15T07:05:39.520Z,10.10
2019-02-15T07:08:08.206Z,9.40
2019-02-15T07:10:36.672Z,9.60
2019-02-15T07:13:05.108Z,9.30
2019-02-15T07:15:34.162Z,7.67
2019-02-15T07:18:02.653Z,9.10
2019-02-15T07:20:31.111Z,8.23
2019-02-15T07:22:59.844Z,13.13
2019-02-15T07:25:28.537Z,10.05
2019-02-15T07:27:57.012Z,8.33
2019-02-15T07:30:25.565Z,9.25
2019-02-15T07:32:54.260Z,9.78
2019-02-15T07:35:22.715Z,7.08
2019-02-15T07:37:51.396Z,9.80
2019-02-15T07:40:20.402Z,11.35
2019-02-15T07:42:48.853Z,9.68
2019-02-15T07:45:17.912Z,13.83
2019-02-15T07:47:46.672Z,13.60
2019-02-15T07:50:15.129Z,10.20
2019-02-15T07:52:43.575Z,8.20
2019-02-15T07:55:12.027Z,11.05
2019-02-15T07:57:40.480Z,8.18
2019-02-15T08:00:10.788Z,8.35
2019-02-15T08:02:39.493Z,6.50
2019-02-15T08:05:08.101Z,8.18
2019-02-15T08:07:36.543Z,8.20
2019-02-15T08:10:05.035Z,10.48
2019-02-15T08:12:33.721Z,7.62
2019-02-15T08:15:02.151Z,7.92
2019-02-15T08:17:30.616Z,8.75
2019-02-15T08:19:59.094Z,6.87
2019-02-15T08:22:27.559Z,7.05
2019-02-15T08:24:56.233Z,9.70
2019-02-15T08:27:24.810Z,7.78
2019-02-15T08:29:53.727Z,7.55
2019-02-15T08:32:22.180Z,8.38
2019-02-15T08:34:50.613Z,7.47
2019-02-15T08:37:19.317Z,10.95
2019-02-15T08:39:47.759Z,8.33
2019-02-15T08:42:16.235Z,9.53
2019-02-15T08:44:44.921Z,7.75
2019-02-15T08:47:13.432Z,7.05
2019-02-15T08:49:41.870Z,7.65
2019-02-15T08:52:10.331Z,7.50
2019-02-15T08:54:38.796Z,6.83
2019-02-15T08:57:07.469Z,8.08
2019-02-15T08:59:36.144Z,7.60
2019-02-15T09:02:29.751Z,6.75
2019-02-15T09:04:58.223Z,8.50
2019-02-15T09:07:26.683Z,6.47
2019-02-15T09:09:55.355Z,7.35
2019-02-15T09:12:24.064Z,7.80
2019-02-15T09:14:52.510Z,6.25
2019-02-15T09:17:20.970Z,8.65
2019-02-15T09:19:49.709Z,6.65
2019-02-15T09:22:18.167Z,7.17
2019-02-15T09:24:46.871Z,7.83
2019-02-15T09:27:25.896Z,6.65
2019-02-15T09:29:54.360Z,7.37
2019-02-15T09:32:23.060Z,7.90
2019-02-15T09:34:51.746Z,5.65
2019-02-15T09:37:20.220Z,7.42
2019-02-15T09:39:49.383Z,7.30
2019-02-15T09:42:18.095Z,5.97
2019-02-15T09:44:46.552Z,5.33
2019-02-15T09:47:15.064Z,6.90
2019-02-15T09:49:45.078Z,5.15
2019-02-15T09:52:14.222Z,5.03
2019-02-15T09:54:42.718Z,5.83
2019-02-15T09:57:11.167Z,5.58
2019-02-15T09:59:39.932Z,5.33
2019-02-15T10:02:08.435Z,7.30
2019-02-15T10:04:37.092Z,5.10
2019-02-15T10:07:05.553Z,6.28
2019-02-15T10:09:34.269Z,7.33
2019-02-15T10:12:02.721Z,7.47
2019-02-15T10:14:31.501Z,6.83
2019-02-15T10:17:00.218Z,7.30
2019-02-15T10:19:28.698Z,5.17
2019-02-15T10:21:57.166Z,7.05
2019-02-15T10:24:25.655Z,4.72
2019-02-15T10:26:54.371Z,6.50
2019-02-15T10:29:23.120Z,4.83
2019-02-15T10:31:51.590Z,5.35
2019-02-15T10:34:20.062Z,7.03
2019-02-15T10:36:48.528Z,6.08
2019-02-15T10:39:17.006Z,4.83
2019-02-15T10:41:45.724Z,4.72
2019-02-15T10:44:14.449Z,3.77
2019-02-15T10:46:42.951Z,4.85
2019-02-15T10:49:11.634Z,5.37
2019-02-15T10:51:40.322Z,4.42
2019-02-15T10:54:09.028Z,3.52
2019-02-15T10:56:37.720Z,4.45
2019-02-15T10:59:06.170Z,4.55
2019-02-15T11:01:34.618Z,3.85
2019-02-15T11:04:03.068Z,4.30
2019-02-15T11:06:31.789Z,3.17
2019-02-15T11:09:00.234Z,3.70
2019-02-15T11:11:28.988Z,4.37
2019-02-15T11:13:57.823Z,3.45
2019-02-15T11:16:26.844Z,4.05
2019-02-15T11:18:55.296Z,3.62
2019-02-15T11:21:23.769Z,3.15
2019-02-15T11:23:52.438Z,4.42
2019-02-15T11:26:24.725Z,4.30
2019-02-15T11:28:51.316Z,3.75
2019-02-15T11:31:19.867Z,3.50
2019-02-15T11:33:48.462Z,3.45
2019-02-15T11:36:17.127Z,3.22
2019-02-15T11:38:45.842Z,2.98
2019-02-15T11:41:14.532Z,4.55
2019-02-15T11:43:43.213Z,3.85
2019-02-15T11:46:11.911Z,3.65
2019-02-15T11:48:40.356Z,3.92
2019-02-15T11:51:09.324Z,4.45
2019-02-15T11:53:38.091Z,3.30
2019-02-15T11:56:06.806Z,3.47
2019-02-15T11:58:35.485Z,2.70
2019-02-15T12:01:05.623Z,3.77
2019-02-15T12:03:34.081Z,4.22
2019-02-15T12:06:03.838Z,2.75
2019-02-15T12:08:32.698Z,3.17
2019-02-15T12:11:01.871Z,3.83
2019-02-15T12:13:30.300Z,3.25
2019-02-15T12:15:58.829Z,3.15
2019-02-15T12:18:27.743Z,4.20
2019-02-15T12:20:56.448Z,4.55
2019-02-15T12:23:24.923Z,3.87
2019-02-15T12:25:53.619Z,5.75
2019-02-15T12:28:22.875Z,2.62
2019-02-15T12:30:51.306Z,5.17
2019-02-15T12:33:19.762Z,4.67
2019-02-15T12:35:48.438Z,4.17
2019-02-15T12:38:17.397Z,3.90
2019-02-15T12:40:45.858Z,5.70
2019-02-15T12:43:14.801Z,2.58
2019-02-15T12:45:43.258Z,3.87
2019-02-15T12:48:11.747Z,4.55
2019-02-15T12:50:40.174Z,3.62
2019-02-15T12:53:08.896Z,2.80
2019-02-15T12:55:37.625Z,3.30
2019-02-15T12:58:06.079Z,3.75
2019-02-15T13:00:34.765Z,2.92
2019-02-15T13:03:03.238Z,4.47
2019-02-15T13:05:31.934Z,3.45
2019-02-15T13:08:00.419Z,3.58
2019-02-15T13:10:30.976Z,3.25
2019-02-15T13:12:59.427Z,3.02
2019-02-15T13:15:29.189Z,3.05
2019-02-15T13:18:04.652Z,4.22
2019-02-15T13:20:33.515Z,2.95
2019-02-15T13:23:03.246Z,3.25
2019-02-15T13:25:36.829Z,3.55
2019-02-15T13:28:02.201Z,8.78
2019-02-15T13:30:30.632Z,5.03
2019-02-15T13:32:59.335Z,2.80
2019-02-15T13:35:28.304Z,3.40
2019-02-15T13:37:56.996Z,2.70
2019-02-15T13:40:25.683Z,2.45
2019-02-15T13:42:54.133Z,2.80
2019-02-15T13:45:22.610Z,1.87
2019-02-15T13:47:51.104Z,2.00
2019-02-15T13:50:19.600Z,1.85
2019-02-15T13:52:50.218Z,2.87
2019-02-15T13:55:19.018Z,2.33
2019-02-15T13:57:47.479Z,4.03
2019-02-15T14:00:15.936Z,3.85
2019-02-15T14:02:44.377Z,4.62
2019-02-15T14:05:12.851Z,2.62
2019-02-15T14:07:41.309Z,3.10
2019-02-15T14:10:10.458Z,5.15
2019-02-15T14:12:39.215Z,3.77
2019-02-15T14:15:07.776Z,2.25
2019-02-15T14:17:44.197Z,2.80
2019-02-15T14:20:08.639Z,3.42
2019-02-15T14:22:37.033Z,2.17
2019-02-15T14:25:05.774Z,2.98
2019-02-15T14:27:34.528Z,2.52
2019-02-15T14:30:06.779Z,2.42
2019-02-15T14:32:35.230Z,3.20
2019-02-15T14:35:03.787Z,2.20
2019-02-15T14:37:32.217Z,3.20
2019-02-15T14:40:00.693Z,3.05
2019-02-15T14:42:29.126Z,3.00
2019-02-15T14:44:57.584Z,3.08
2019-02-15T14:47:26.040Z,3.17
2019-02-15T14:49:54.966Z,1.87
2019-02-15T14:52:23.413Z,3.42
2019-02-15T14:54:52.143Z,2.65
2019-02-15T14:57:20.568Z,2.27
2019-02-15T14:59:49.023Z,2.85
2019-02-15T15:02:17.464Z,3.55
2019-02-15T15:04:46.028Z,2.77
2019-02-15T15:07:14.724Z,3.02
2019-02-15T15:09:43.415Z,2.65
2019-02-15T15:12:11.890Z,3.45
2019-02-15T15:14:40.350Z,2.45
2019-02-15T15:17:08.818Z,4.95
2019-02-15T15:19:37.539Z,2.30
2019-02-15T15:22:06.018Z,2.72
2019-02-15T15:24:34.485Z,2.12
2019-02-15T15:27:03.279Z,3.58
2019-02-15T15:29:31.719Z,2.65
2019-02-15T15:32:01.273Z,3.27
2019-02-15T15:34:29.704Z,2.00
2019-02-15T15:36:58.157Z,1.40
2019-02-15T15:39:26.891Z,3.20
2019-02-15T15:41:57.512Z,2.33
2019-02-15T15:44:25.522Z,2.40
2019-02-15T15:46:54.519Z,2.05
2019-02-15T15:49:23.012Z,3.67
2019-02-15T15:51:51.477Z,2.35
2019-02-15T15:54:20.389Z,3.05
2019-02-15T15:56:49.086Z,2.60
2019-02-15T15:59:17.547Z,3.52
2019-02-15T16:01:46.264Z,2.83
2019-02-15T16:04:15.035Z,3.17
2019-02-15T16:06:43.744Z,3.17
2019-02-15T16:09:12.682Z,2.75
2019-02-15T16:11:41.404Z,4.20
2019-02-15T16:14:10.108Z,3.65
2019-02-15T16:16:38.847Z,3.62
2019-02-15T16:19:07.527Z,3.90
2019-02-15T16:21:36.025Z,3.33
2019-02-15T16:24:12.422Z,3.77
2019-02-15T16:26:35.420Z,2.67
2019-02-15T16:29:03.927Z,3.52
2019-02-15T16:31:32.431Z,5.37
2019-02-15T16:34:00.869Z,3.95
2019-02-15T16:36:29.559Z,4.45
2019-02-15T16:38:58.291Z,7.12
2019-02-15T16:41:26.737Z,5.05
2019-02-15T16:43:55.235Z,2.22
2019-02-15T16:46:23.676Z,3.20
2019-02-15T16:48:52.175Z,2.52
2019-02-15T16:51:20.910Z,3.42
2019-02-15T16:53:49.629Z,4.35
2019-02-15T16:56:18.307Z,3.58
2019-02-15T16:58:47.010Z,2.92
2019-02-15T17:01:15.971Z,4.87
2019-02-15T17:03:44.421Z,4.40
2019-02-15T17:06:12.853Z,2.80
2019-02-15T17:08:41.325Z,3.20
2019-02-15T17:11:10.014Z,4.30
2019-02-15T17:13:38.491Z,4.15
2019-02-15T17:16:06.917Z,3.02
2019-02-15T17:18:35.370Z,3.95
2019-02-15T17:21:04.061Z,3.72
2019-02-15T17:23:32.745Z,4.12
2019-02-15T17:26:01.448Z,5.10
2019-02-15T17:28:30.801Z,2.58
2019-02-15T17:30:59.508Z,2.92
2019-02-15T17:33:27.957Z,3.40
2019-02-15T17:35:56.406Z,2.35
2019-02-15T17:38:25.114Z,2.17
2019-02-15T17:40:53.851Z,1.27
2019-02-15T17:43:22.299Z,3.47
2019-02-15T17:45:50.753Z,2.22
2019-02-15T17:48:19.252Z,4.92
2019-02-15T17:50:47.654Z,1.98
2019-02-15T17:53:16.084Z,3.22
2019-02-15T17:55:44.533Z,1.42
2019-02-15T17:58:13.211Z,3.20
2019-02-15T18:00:41.912Z,1.95
2019-02-15T18:03:10.356Z,2.10
2019-02-15T18:05:39.125Z,2.25
2019-02-15T18:08:07.563Z,2.85
2019-02-15T18:10:36.289Z,1.60
2019-02-15T18:13:04.955Z,3.80
2019-02-15T18:15:33.745Z,2.37
2019-02-15T18:18:02.440Z,4.87
2019-02-15T18:20:30.882Z,2.70
2019-02-15T18:22:59.372Z,3.30
2019-02-15T18:25:28.074Z,3.35
2019-02-15T18:27:56.741Z,3.35
2019-02-15T18:30:25.413Z,2.60
2019-02-15T18:32:54.138Z,2.05
2019-02-15T18:35:22.544Z,4.65
2019-02-15T18:37:51.325Z,9.58
2019-02-15T18:40:19.791Z,37.95
2019-02-15T18:42:48.219Z,2.08
2019-02-15T18:45:16.950Z,5.75
2019-02-15T18:47:45.900Z,18.67
2019-02-15T18:50:15.064Z,88.47
2019-02-15T18:52:43.603Z,16.12
2019-02-15T18:55:12.371Z,6.75
2019-02-15T18:57:40.844Z,3.20
2019-02-15T19:00:11.509Z,4.58
2019-02-15T19:02:39.962Z,3.55
2019-02-15T19:05:09.695Z,4.55
2019-02-15T19:07:38.444Z,48.85
2019-02-15T19:10:08.613Z,56.18
2019-02-15T19:12:37.122Z,52.53
2019-02-15T19:15:05.793Z,33.78
2019-02-15T19:17:34.544Z,50.33
2019-02-15T19:20:02.989Z,8.28
2019-02-15T19:22:31.661Z,5.00
2019-02-15T19:25:00.371Z,2.25
2019-02-15T19:27:28.833Z,2.37
2019-02-15T19:29:57.268Z,4.22
2019-02-15T19:32:25.731Z,2.70
2019-02-15T19:34:54.406Z,2.42
2019-02-15T19:37:22.852Z,1.98
2019-02-15T19:39:51.321Z,3.37
2019-02-15T19:42:21.765Z,2.77
2019-02-15T19:44:50.252Z,2.75
2019-02-15T19:47:18.717Z,4.22
2019-02-15T19:49:47.459Z,3.27
2019-02-15T19:52:15.911Z,5.15
2019-02-15T19:54:44.378Z,3.22
2019-02-15T19:57:12.836Z,2.98
2019-02-15T19:59:41.276Z,3.42
2019-02-15T20:02:10.019Z,4.08
2019-02-15T20:04:38.453Z,3.45
2019-02-15T20:07:07.400Z,3.47
2019-02-15T20:09:36.320Z,3.10
2019-02-15T20:12:04.783Z,5.03
2019-02-15T20:14:33.217Z,4.37
2019-02-15T20:17:01.918Z,3.75
2019-02-15T20:19:30.360Z,4.80
2019-02-15T20:21:58.827Z,4.37
2019-02-15T20:24:29.436Z,4.33
2019-02-15T20:26:57.879Z,2.92
2019-02-15T20:29:26.581Z,4.40
2019-02-15T20:31:55.015Z,4.67
2019-02-15T20:34:23.740Z,4.08
2019-02-15T20:36:52.579Z,4.05
2019-02-15T20:39:21.081Z,4.10
2019-02-15T20:41:49.778Z,3.42
2019-02-15T20:44:18.242Z,3.67
2019-02-15T20:46:48.060Z,3.85
2019-02-15T20:49:16.493Z,4.62
2019-02-15T20:51:44.948Z,5.15
2019-02-15T20:54:13.467Z,7.62
2019-02-15T20:56:42.173Z,3.67
2019-02-15T20:59:10.870Z,3.83
2019-02-15T21:01:39.718Z,5.00
2019-02-15T21:04:08.408Z,7.47
2019-02-15T21:06:37.114Z,5.85
2019-02-15T21:09:06.442Z,4.65
2019-02-15T21:11:35.187Z,5.42
2019-02-15T21:14:03.653Z,5.17
2019-02-15T21:16:32.567Z,5.87
2019-02-15T21:19:01.276Z,5.15
2019-02-15T21:21:29.741Z,4.40
2019-02-15T21:23:58.451Z,4.95
2019-02-15T21:26:27.138Z,7.10
2019-02-15T21:28:55.589Z,4.87
2019-02-15T21:31:24.048Z,4.12
2019-02-15T21:33:52.770Z,5.03
2019-02-15T21:36:21.231Z,5.62
2019-02-15T21:38:49.737Z,4.08
2019-02-15T21:41:18.457Z,4.47
2019-02-15T21:43:47.318Z,4.90
2019-02-15T21:46:15.787Z,3.00
2019-02-15T21:48:44.255Z,4.05
2019-02-15T21:51:12.947Z,3.22
2019-02-15T21:53:41.862Z,3.37
2019-02-15T21:56:10.562Z,3.42
2019-02-15T21:58:39.305Z,2.98
2019-02-15T22:01:07.755Z,2.55
2019-02-15T22:03:36.242Z,2.83
2019-02-15T22:06:04.935Z,5.03
2019-02-15T22:08:33.655Z,2.72
2019-02-15T22:11:02.111Z,3.02
2019-02-15T22:13:30.798Z,4.05
2019-02-15T22:15:59.521Z,3.00
2019-02-15T22:18:28.244Z,2.92
2019-02-15T22:20:57.031Z,2.87
2019-02-15T22:23:25.599Z,3.20
2019-02-15T22:25:54.060Z,3.95
2019-02-15T22:28:22.774Z,3.90
2019-02-15T22:30:51.471Z,3.17
2019-02-15T22:33:19.905Z,3.27
2019-02-15T22:35:48.376Z,4.50
2019-02-15T22:38:16.820Z,3.80
2019-02-15T22:40:46.262Z,4.47
2019-02-15T22:43:22.329Z,3.98
2019-02-15T22:45:50.787Z,3.25
2019-02-15T22:48:19.257Z,3.65
2019-02-15T22:50:47.723Z,4.92
2019-02-15T22:53:16.415Z,5.33
2019-02-15T22:55:45.137Z,5.80
2019-02-15T22:58:13.576Z,5.30
2019-02-15T23:01:08.948Z,6.10
2019-02-15T23:03:37.660Z,5.40
2019-02-15T23:06:06.112Z,4.95
2019-02-15T23:08:34.565Z,7.45
2019-02-15T23:11:03.012Z,6.65
2019-02-15T23:13:31.703Z,5.90
2019-02-15T23:16:00.220Z,5.95
2019-02-15T23:18:28.631Z,7.37
2019-02-15T23:20:57.098Z,6.95
2019-02-15T23:23:25.827Z,9.85
2019-02-15T23:25:54.284Z,7.17
2019-02-15T23:28:22.794Z,7.45
2019-02-15T23:30:51.271Z,9.38
2019-02-15T23:33:19.968Z,5.75
2019-02-15T23:35:48.434Z,7.72
2019-02-15T23:38:16.901Z,7.78
2019-02-15T23:40:45.371Z,6.78
2019-02-15T23:43:13.811Z,8.20
2019-02-15T23:45:42.499Z,6.87
2019-02-15T23:48:11.167Z,6.58
2019-02-15T23:50:39.922Z,5.97
2019-02-15T23:53:08.608Z,6.30
2019-02-15T23:55:37.062Z,6.95
2019-02-15T23:58:05.505Z,9.48
